Air Quality Table

TIMESTAMP NO2 SO2 O3 CO TEMP HUM AIRPRES WS WD NO BENZENE
2022-06-26 01:00 39.7 µg/m3 1.59 µg/m3 29.29 µg/m3 0.34 mg/m3 27.77 °C 45.52 % 1,013.13 mbar 2.18 m/s 178.29 Deg 25.66 µg/m3 0.63 µg/m3
2022-06-25 01:00 23.98 µg/m3 0.69 µg/m3 43.15 µg/m3 0.16 mg/m3 -20 °C 54.35 % 1,011.02 mbar 4.35 m/s 206.29 Deg 10.97 µg/m3 0.59 µg/m3
2022-06-24 01:00 37.53 µg/m3 4.47 µg/m3 54.82 µg/m3 0.17 mg/m3 26.3 °C 62.91 % 1,013.59 mbar 3.2 m/s 244.81 Deg 7.34 µg/m3 0.5 µg/m3
2022-06-23 01:00 16.57 µg/m3 0.08 µg/m3 47.99 µg/m3 0.16 mg/m3 25.37 °C 75 % 1,011.74 mbar 3.07 m/s 229.13 Deg 6.29 µg/m3 0.89 µg/m3
2022-06-22 01:00 19.36 µg/m3 0.44 µg/m3 58.61 µg/m3 0.2 mg/m3 25.02 °C 75.32 % 1,013.97 mbar 2.85 m/s 232.46 Deg 10.57 µg/m3 6.58 µg/m3
2022-06-21 01:00 25.97 µg/m3 0.93 µg/m3 63.32 µg/m3 0.23 mg/m3 24.1 °C 5.9E+21 % 1,014.75 mbar 1.67 m/s 154.61 Deg 12.99 µg/m3 3.91 µg/m3
2022-06-20 01:00 26.5 µg/m3 0.67 µg/m3 64.84 µg/m3 0.26 mg/m3 24.27 °C 78.5 % 1,013.17 mbar 1.97 m/s 138.62 Deg 6.88 µg/m3 5.46 µg/m3
2022-06-19 01:00 21.46 µg/m3 0.4 µg/m3 64.22 µg/m3 0.21 mg/m3 24.28 °C 83.68 % 1,012.71 mbar 2.3 m/s 115.91 Deg 5.83 µg/m3 1.21 µg/m3
2022-06-18 01:00 21.23 µg/m3 0.72 µg/m3 50.89 µg/m3 0.2 mg/m3 24.45 °C 77.59 % 1,016.29 mbar 2.62 m/s 227.22 Deg 12.74 µg/m3 0.79 µg/m3
2022-06-17 01:00 25.04 µg/m3 0.52 µg/m3 52.22 µg/m3 0.19 mg/m3 24.06 °C 71.78 % 1,016.53 mbar 3.17 m/s 228.57 Deg 11.19 µg/m3 0.81 µg/m3
2022-06-16 01:00 37.45 µg/m3 0.98 µg/m3 52.35 µg/m3 0.24 mg/m3 24.37 °C 63.22 % 1,016.57 mbar 1.24E+35 m/s 1 Deg 16.56 µg/m3 1.07 µg/m3
2022-06-15 01:00 25.51 µg/m3 0.53 µg/m3 67.54 µg/m3 0.2 mg/m3 23.02 °C 80.65 % 1,014.13 mbar 1.75 m/s 144.7 Deg 7.26 µg/m3 0.98 µg/m3
2022-06-14 01:00 19.72 µg/m3 0.7 µg/m3 77.79 µg/m3 0.19 mg/m3 24.09 °C 65.22 % 1,012.00 mbar 2.53 m/s 211.27 Deg 5.69 µg/m3 2.3 µg/m3
2022-06-13 01:00 15.57 µg/m3 0.38 µg/m3 71.84 µg/m3 0.19 mg/m3 23.67 °C 71.57 % 1,014.38 mbar 2.45 m/s 201.7 Deg 3.95 µg/m3 3.87 µg/m3
2022-06-12 01:00 12.15 µg/m3 0.16 µg/m3 76.75 µg/m3 0.15 mg/m3 23.24 °C 76.1 % 1,012.82 mbar 3.67 m/s 264.18 Deg 2.51 µg/m3 1.78 µg/m3
2022-06-11 01:00 8.47 µg/m3 0.07 µg/m3 69.61 µg/m3 0.13 mg/m3 22.33 °C 76.84 % 1,008.65 mbar 5.12 m/s 932 Deg 2.73 µg/m3 1.88 µg/m3
2022-06-10 01:00 11.63 µg/m3 0.05 µg/m3 61.94 µg/m3 0.19 mg/m3 23.24 °C 78.55 % 1,007.06 mbar 5.66 m/s 249.2 Deg 3.14 µg/m3 0.93 µg/m3
2022-06-09 01:00 14.34 µg/m3 0.18 µg/m3 63.85 µg/m3 0.29 mg/m3 24.17 °C 79.25 % 1,010.13 mbar 3.72 m/s 185.27 Deg 3.76 µg/m3 0.87 µg/m3
2022-06-08 01:00 15.02 µg/m3 0.56 µg/m3 66.32 µg/m3 0.38 mg/m3 25.41 °C 66.97 % 1,011.04 mbar 3.13 m/s 198.59 Deg 4.23 µg/m3 2.28 µg/m3
2022-06-07 01:00 12.72 µg/m3 0.06 µg/m3 60.33 µg/m3 0.28 mg/m3 24.02 °C 85.94 % 1,013.84 mbar 5.22 m/s 254.88 Deg 3.59 µg/m3 0.61 µg/m3
2022-06-06 01:00 23.85 µg/m3 0.94 µg/m3 60.6 µg/m3 0.43 mg/m3 27.42 °C 56.51 % 1,014.98 mbar 2.47 m/s 227.85 Deg 6.01 µg/m3 1.57 µg/m3
2022-06-05 01:00 38.1 µg/m3 1.35 µg/m3 48.57 µg/m3 0.5 mg/m3 26.93 °C 43.13 % 1,015.59 mbar 2.01 m/s 196.13 Deg 18.19 µg/m3 1.5 µg/m3
2022-06-04 01:00 43.24 µg/m3 1.71 µg/m3 50.91 µg/m3 0.53 mg/m3 25.33 °C 54.19 % 1,015.16 mbar 1.36 m/s 168.8 Deg 26.91 µg/m3 1.52 µg/m3
2022-06-03 01:00 36.01 µg/m3 1.11 µg/m3 44.48 µg/m3 0.51 mg/m3 25.21 °C 65.2 % 1,012.85 mbar 1.74 m/s 165.4 Deg 13.88 µg/m3 0.73 µg/m3
2022-06-02 01:00 34.49 µg/m3 0.84 µg/m3 40.54 µg/m3 0.51 mg/m3 26.16 °C 54.37 % 1,013.43 mbar 1.72 m/s 860 Deg 14.82 µg/m3 1.88 µg/m3
2022-06-01 01:00 36.23 µg/m3 1.19 µg/m3 40.17 µg/m3 0.49 mg/m3 26.57 °C 50.44 % 1,014.28 mbar 1.87 m/s 201.31 Deg 25.8 µg/m3 1.54 µg/m3
2022-05-31 01:00 30.61 µg/m3 0.68 µg/m3 51.9 µg/m3 0.4 mg/m3 26.41 °C 43.12 % 1,011.02 mbar 2.38 m/s 205.73 Deg 14.45 µg/m3 0.97 µg/m3
2022-05-30 01:00 12 µg/m3 0.08 µg/m3 71.13 µg/m3 0.3 mg/m3 21.25 °C 79 % 1,007.16 mbar 4.29 m/s 257.06 Deg 2.54 µg/m3 0 µg/m3
2022-05-29 01:00 11.89 µg/m3 0.08 µg/m3 70.85 µg/m3 0.28 mg/m3 21.24 °C 80.37 % 1,007.10 mbar 5.25 m/s 254.33 Deg 3 µg/m3 0.02 µg/m3
2022-05-28 01:00 19.91 µg/m3 0.35 µg/m3 61.91 µg/m3 0.38 mg/m3 23.21 °C 72.89 % 1,010.27 mbar 2.54 m/s 174.84 Deg 4.69 µg/m3 0.7 µg/m3

It is to be noted that the data is provisional and subject to quality assurance procedures. For validated data kindly refer your request to contact.air@era.org.mt